sensor_id;sensor_type;location;lat;lon;timestamp;temperature;humidity
5556;DHT22;2801;50.972;7.856;2022-10-28T00:01:13;12.80;99.90
5556;DHT22;2801;50.972;7.856;2022-10-28T00:03:43;12.70;99.90
5556;DHT22;2801;50.972;7.856;2022-10-28T00:06:19;12.80;99.90
5556;DHT22;2801;50.972;7.856;2022-10-28T00:08:48;12.80;99.90
5556;DHT22;2801;50.972;7.856;2022-10-28T00:11:24;12.80;99.90
5556;DHT22;2801;50.972;7.856;2022-10-28T00:13:54;13.00;99.90
5556;DHT22;2801;50.972;7.856;2022-10-28T00:16:24;12.80;99.90
5556;DHT22;2801;50.972;7.856;2022-10-28T00:18:53;12.80;99.90
5556;DHT22;2801;50.972;7.856;2022-10-28T00:21:25;12.80;99.90
5556;DHT22;2801;50.972;7.856;2022-10-28T00:23:56;12.70;99.90
5556;DHT22;2801;50.972;7.856;2022-10-28T00:26:28;12.70;99.90
5556;DHT22;2801;50.972;7.856;2022-10-28T00:28:57;12.70;99.90
5556;DHT22;2801;50.972;7.856;2022-10-28T00:31:31;12.70;99.90
5556;DHT22;2801;50.972;7.856;2022-10-28T00:34:00;12.80;99.90
5556;DHT22;2801;50.972;7.856;2022-10-28T00:36:30;12.80;99.90
5556;DHT22;2801;50.972;7.856;2022-10-28T00:39:00;12.80;99.90
5556;DHT22;2801;50.972;7.856;2022-10-28T00:41:35;12.90;99.90
5556;DHT22;2801;50.972;7.856;2022-10-28T00:47:46;12.90;99.90
5556;DHT22;2801;50.972;7.856;2022-10-28T00:50:28;13.00;99.90
5556;DHT22;2801;50.972;7.856;2022-10-28T00:53:27;13.00;99.90
5556;DHT22;2801;50.972;7.856;2022-10-28T00:55:59;13.10;99.90
5556;DHT22;2801;50.972;7.856;2022-10-28T00:58:28;13.10;99.90
5556;DHT22;2801;50.972;7.856;2022-10-28T01:00:56;13.20;99.90
5556;DHT22;2801;50.972;7.856;2022-10-28T01:03:23;13.10;99.90
5556;DHT22;2801;50.972;7.856;2022-10-28T01:05:51;13.20;99.90
5556;DHT22;2801;50.972;7.856;2022-10-28T01:08:19;13.20;99.90
5556;DHT22;2801;50.972;7.856;2022-10-28T01:14:17;13.20;99.90
5556;DHT22;2801;50.972;7.856;2022-10-28T01:26:22;13.30;99.90
5556;DHT22;2801;50.972;7.856;2022-10-28T01:31:58;13.40;99.90
5556;DHT22;2801;50.972;7.856;2022-10-28T01:34:37;13.50;99.90
5556;DHT22;2801;50.972;7.856;2022-10-28T01:37:46;13.50;99.90
5556;DHT22;2801;50.972;7.856;2022-10-28T01:47:15;13.60;99.90
5556;DHT22;2801;50.972;7.856;2022-10-28T01:50:04;13.60;99.90
5556;DHT22;2801;50.972;7.856;2022-10-28T01:52:37;13.60;99.90
5556;DHT22;2801;50.972;7.856;2022-10-28T01:55:12;13.60;99.90
5556;DHT22;2801;50.972;7.856;2022-10-28T01:57:42;13.60;99.90
5556;DHT22;2801;50.972;7.856;2022-10-28T02:00:11;13.60;99.90
5556;DHT22;2801;50.972;7.856;2022-10-28T02:02:38;13.60;99.90
5556;DHT22;2801;50.972;7.856;2022-10-28T02:05:43;13.60;99.90
5556;DHT22;2801;50.972;7.856;2022-10-28T02:13:57;13.60;99.90
5556;DHT22;2801;50.972;7.856;2022-10-28T02:17:51;13.50;99.90
5556;DHT22;2801;50.972;7.856;2022-10-28T02:20:12;13.40;99.90
5556;DHT22;2801;50.972;7.856;2022-10-28T02:25:52;13.40;99.90
5556;DHT22;2801;50.972;7.856;2022-10-28T02:28:41;13.40;99.90
5556;DHT22;2801;50.972;7.856;2022-10-28T02:34:16;13.40;99.90
5556;DHT22;2801;50.972;7.856;2022-10-28T02:36:51;13.40;99.90
5556;DHT22;2801;50.972;7.856;2022-10-28T02:39:28;13.50;99.90
5556;DHT22;2801;50.972;7.856;2022-10-28T02:42:07;13.60;99.90
5556;DHT22;2801;50.972;7.856;2022-10-28T02:44:44;13.70;99.90
5556;DHT22;2801;50.972;7.856;2022-10-28T02:47:18;13.80;99.90
5556;DHT22;2801;50.972;7.856;2022-10-28T02:49:52;13.80;99.90
5556;DHT22;2801;50.972;7.856;2022-10-28T02:52:24;14.00;99.90
5556;DHT22;2801;50.972;7.856;2022-10-28T02:54:57;13.90;99.90
5556;DHT22;2801;50.972;7.856;2022-10-28T02:57:34;14.10;99.90
5556;DHT22;2801;50.972;7.856;2022-10-28T03:00:16;14.00;99.90
5556;DHT22;2801;50.972;7.856;2022-10-28T03:02:45;14.00;99.90
5556;DHT22;2801;50.972;7.856;2022-10-28T03:05:12;14.10;99.90
5556;DHT22;2801;50.972;7.856;2022-10-28T03:07:40;14.10;99.90
5556;DHT22;2801;50.972;7.856;2022-10-28T03:10:07;14.20;99.90
5556;DHT22;2801;50.972;7.856;2022-10-28T03:12:35;14.20;99.90
5556;DHT22;2801;50.972;7.856;2022-10-28T03:15:02;14.20;99.90
5556;DHT22;2801;50.972;7.856;2022-10-28T03:17:29;14.20;99.90
5556;DHT22;2801;50.972;7.856;2022-10-28T03:19:56;14.20;99.90
5556;DHT22;2801;50.972;7.856;2022-10-28T03:22:23;14.20;99.90
5556;DHT22;2801;50.972;7.856;2022-10-28T03:24:50;14.20;99.90
5556;DHT22;2801;50.972;7.856;2022-10-28T03:27:17;14.20;99.90
5556;DHT22;2801;50.972;7.856;2022-10-28T03:29:44;14.30;99.90
5556;DHT22;2801;50.972;7.856;2022-10-28T03:32:12;14.30;99.90
5556;DHT22;2801;50.972;7.856;2022-10-28T03:34:39;14.40;99.90
5556;DHT22;2801;50.972;7.856;2022-10-28T03:37:05;14.40;99.90
5556;DHT22;2801;50.972;7.856;2022-10-28T03:39:32;14.50;99.90
5556;DHT22;2801;50.972;7.856;2022-10-28T03:41:59;14.50;99.90
5556;DHT22;2801;50.972;7.856;2022-10-28T03:44:26;14.60;99.90
5556;DHT22;2801;50.972;7.856;2022-10-28T03:46:53;14.60;99.90
5556;DHT22;2801;50.972;7.856;2022-10-28T03:49:20;14.70;99.90
5556;DHT22;2801;50.972;7.856;2022-10-28T03:51:46;14.70;99.90
5556;DHT22;2801;50.972;7.856;2022-10-28T03:54:13;14.70;99.90
5556;DHT22;2801;50.972;7.856;2022-10-28T03:56:40;14.70;99.90
5556;DHT22;2801;50.972;7.856;2022-10-28T03:59:10;14.70;99.90
5556;DHT22;2801;50.972;7.856;2022-10-28T04:01:40;14.70;99.90
5556;DHT22;2801;50.972;7.856;2022-10-28T04:04:07;14.70;99.90
5556;DHT22;2801;50.972;7.856;2022-10-28T04:06:34;14.70;99.90
5556;DHT22;2801;50.972;7.856;2022-10-28T04:09:01;14.70;99.90
5556;DHT22;2801;50.972;7.856;2022-10-28T04:11:27;14.50;99.90
5556;DHT22;2801;50.972;7.856;2022-10-28T04:13:54;14.50;99.90
5556;DHT22;2801;50.972;7.856;2022-10-28T04:16:21;14.30;99.90
5556;DHT22;2801;50.972;7.856;2022-10-28T04:18:48;14.20;99.90
5556;DHT22;2801;50.972;7.856;2022-10-28T04:21:15;14.10;99.90
5556;DHT22;2801;50.972;7.856;2022-10-28T04:23:42;14.00;99.90
5556;DHT22;2801;50.972;7.856;2022-10-28T04:26:09;13.90;99.90
5556;DHT22;2801;50.972;7.856;2022-10-28T04:28:36;13.90;99.90
5556;DHT22;2801;50.972;7.856;2022-10-28T04:31:03;13.80;99.90
5556;DHT22;2801;50.972;7.856;2022-10-28T04:33:30;13.80;99.90
5556;DHT22;2801;50.972;7.856;2022-10-28T04:35:57;13.70;99.90
5556;DHT22;2801;50.972;7.856;2022-10-28T04:38:23;13.70;99.90
5556;DHT22;2801;50.972;7.856;2022-10-28T04:40:50;13.60;99.90
5556;DHT22;2801;50.972;7.856;2022-10-28T04:43:17;13.70;99.90
5556;DHT22;2801;50.972;7.856;2022-10-28T04:45:45;13.50;99.90
5556;DHT22;2801;50.972;7.856;2022-10-28T04:48:12;13.40;99.90
5556;DHT22;2801;50.972;7.856;2022-10-28T04:50:39;13.50;99.90
5556;DHT22;2801;50.972;7.856;2022-10-28T04:53:06;13.40;99.90
5556;DHT22;2801;50.972;7.856;2022-10-28T04:55:33;13.40;99.90
5556;DHT22;2801;50.972;7.856;2022-10-28T04:58:00;13.40;99.90
5556;DHT22;2801;50.972;7.856;2022-10-28T05:00:28;13.20;99.90
5556;DHT22;2801;50.972;7.856;2022-10-28T05:02:55;13.20;99.90
5556;DHT22;2801;50.972;7.856;2022-10-28T05:05:23;13.00;99.90
5556;DHT22;2801;50.972;7.856;2022-10-28T05:07:51;13.00;99.90
5556;DHT22;2801;50.972;7.856;2022-10-28T05:10:18;13.00;99.90
5556;DHT22;2801;50.972;7.856;2022-10-28T05:12:45;13.00;99.90
5556;DHT22;2801;50.972;7.856;2022-10-28T05:15:13;13.10;99.90
5556;DHT22;2801;50.972;7.856;2022-10-28T05:17:45;13.00;99.90
5556;DHT22;2801;50.972;7.856;2022-10-28T05:20:15;13.00;99.90
5556;DHT22;2801;50.972;7.856;2022-10-28T05:22:50;13.10;99.90
5556;DHT22;2801;50.972;7.856;2022-10-28T05:25:20;13.00;99.90
5556;DHT22;2801;50.972;7.856;2022-10-28T05:27:48;13.20;99.90
5556;DHT22;2801;50.972;7.856;2022-10-28T05:30:15;13.00;99.90
5556;DHT22;2801;50.972;7.856;2022-10-28T05:32:42;13.10;99.90
5556;DHT22;2801;50.972;7.856;2022-10-28T05:35:09;13.10;99.90
5556;DHT22;2801;50.972;7.856;2022-10-28T05:37:36;13.30;99.90
5556;DHT22;2801;50.972;7.856;2022-10-28T05:40:03;13.30;99.90
5556;DHT22;2801;50.972;7.856;2022-10-28T05:42:30;13.30;99.90
5556;DHT22;2801;50.972;7.856;2022-10-28T05:44:57;13.30;99.90
5556;DHT22;2801;50.972;7.856;2022-10-28T05:47:24;13.30;99.90
5556;DHT22;2801;50.972;7.856;2022-10-28T05:49:51;13.20;99.90
5556;DHT22;2801;50.972;7.856;2022-10-28T05:52:18;13.20;99.90
5556;DHT22;2801;50.972;7.856;2022-10-28T05:54:45;13.20;99.90
5556;DHT22;2801;50.972;7.856;2022-10-28T05:57:12;13.10;99.90
5556;DHT22;2801;50.972;7.856;2022-10-28T05:59:38;13.10;99.90
5556;DHT22;2801;50.972;7.856;2022-10-28T06:02:07;13.00;99.90
5556;DHT22;2801;50.972;7.856;2022-10-28T06:04:39;13.00;99.90
5556;DHT22;2801;50.972;7.856;2022-10-28T06:07:07;13.00;99.90
5556;DHT22;2801;50.972;7.856;2022-10-28T06:09:34;12.90;99.90
5556;DHT22;2801;50.972;7.856;2022-10-28T06:12:01;12.90;99.90
5556;DHT22;2801;50.972;7.856;2022-10-28T06:14:28;12.80;99.90
5556;DHT22;2801;50.972;7.856;2022-10-28T06:16:55;12.80;99.90
5556;DHT22;2801;50.972;7.856;2022-10-28T06:19:21;12.70;99.90
5556;DHT22;2801;50.972;7.856;2022-10-28T06:21:48;12.70;99.90
5556;DHT22;2801;50.972;7.856;2022-10-28T06:24:15;12.60;99.90
5556;DHT22;2801;50.972;7.856;2022-10-28T06:26:42;12.60;99.90
5556;DHT22;2801;50.972;7.856;2022-10-28T06:29:10;12.60;99.90
5556;DHT22;2801;50.972;7.856;2022-10-28T06:31:41;12.60;99.90
5556;DHT22;2801;50.972;7.856;2022-10-28T06:34:09;12.60;99.90
5556;DHT22;2801;50.972;7.856;2022-10-28T06:36:36;12.60;99.90
5556;DHT22;2801;50.972;7.856;2022-10-28T06:39:04;12.60;99.90
5556;DHT22;2801;50.972;7.856;2022-10-28T06:41:31;12.60;99.90
5556;DHT22;2801;50.972;7.856;2022-10-28T06:43:58;12.50;99.90
5556;DHT22;2801;50.972;7.856;2022-10-28T06:46:26;12.50;99.90
5556;DHT22;2801;50.972;7.856;2022-10-28T06:48:56;12.60;99.90
5556;DHT22;2801;50.972;7.856;2022-10-28T06:51:24;12.80;99.90
5556;DHT22;2801;50.972;7.856;2022-10-28T06:53:51;13.00;99.90
5556;DHT22;2801;50.972;7.856;2022-10-28T06:56:18;13.10;99.90
5556;DHT22;2801;50.972;7.856;2022-10-28T06:58:52;13.30;99.90
5556;DHT22;2801;50.972;7.856;2022-10-28T07:01:20;13.40;99.90
5556;DHT22;2801;50.972;7.856;2022-10-28T07:03:48;13.50;99.90
5556;DHT22;2801;50.972;7.856;2022-10-28T07:06:16;13.50;99.90
5556;DHT22;2801;50.972;7.856;2022-10-28T07:08:43;13.60;99.90
5556;DHT22;2801;50.972;7.856;2022-10-28T07:11:10;13.70;99.90
5556;DHT22;2801;50.972;7.856;2022-10-28T07:13:36;13.90;99.90
5556;DHT22;2801;50.972;7.856;2022-10-28T07:16:04;13.90;99.90
5556;DHT22;2801;50.972;7.856;2022-10-28T07:18:31;14.00;99.90
5556;DHT22;2801;50.972;7.856;2022-10-28T07:20:59;14.00;99.90
5556;DHT22;2801;50.972;7.856;2022-10-28T07:23:27;14.10;99.90
5556;DHT22;2801;50.972;7.856;2022-10-28T07:25:55;14.10;99.90
5556;DHT22;2801;50.972;7.856;2022-10-28T07:28:23;14.20;99.90
5556;DHT22;2801;50.972;7.856;2022-10-28T07:30:51;14.20;99.90
5556;DHT22;2801;50.972;7.856;2022-10-28T07:33:18;14.30;99.90
5556;DHT22;2801;50.972;7.856;2022-10-28T07:35:45;14.30;99.90
5556;DHT22;2801;50.972;7.856;2022-10-28T07:38:12;14.40;99.90
5556;DHT22;2801;50.972;7.856;2022-10-28T07:40:39;14.50;99.90
5556;DHT22;2801;50.972;7.856;2022-10-28T07:43:06;14.70;99.90
5556;DHT22;2801;50.972;7.856;2022-10-28T07:45:33;14.80;99.90
5556;DHT22;2801;50.972;7.856;2022-10-28T07:48:01;15.10;99.90
5556;DHT22;2801;50.972;7.856;2022-10-28T07:50:29;15.20;99.90
5556;DHT22;2801;50.972;7.856;2022-10-28T07:52:56;15.40;99.90
5556;DHT22;2801;50.972;7.856;2022-10-28T07:55:23;15.50;99.90
5556;DHT22;2801;50.972;7.856;2022-10-28T07:57:51;15.50;99.90
5556;DHT22;2801;50.972;7.856;2022-10-28T08:00:19;15.60;99.90
5556;DHT22;2801;50.972;7.856;2022-10-28T08:02:45;15.60;99.90
5556;DHT22;2801;50.972;7.856;2022-10-28T08:05:12;15.60;99.90
5556;DHT22;2801;50.972;7.856;2022-10-28T08:07:39;15.60;99.90
5556;DHT22;2801;50.972;7.856;2022-10-28T08:10:06;15.50;99.90
5556;DHT22;2801;50.972;7.856;2022-10-28T08:12:33;15.50;99.90
5556;DHT22;2801;50.972;7.856;2022-10-28T08:15:00;15.50;99.90
5556;DHT22;2801;50.972;7.856;2022-10-28T08:17:28;15.60;99.90
5556;DHT22;2801;50.972;7.856;2022-10-28T08:19:55;15.70;99.90
5556;DHT22;2801;50.972;7.856;2022-10-28T08:22:22;15.90;99.90
5556;DHT22;2801;50.972;7.856;2022-10-28T08:24:49;16.00;99.90
5556;DHT22;2801;50.972;7.856;2022-10-28T08:27:16;16.10;99.90
5556;DHT22;2801;50.972;7.856;2022-10-28T08:29:42;16.40;99.90
5556;DHT22;2801;50.972;7.856;2022-10-28T08:32:09;16.80;99.90
5556;DHT22;2801;50.972;7.856;2022-10-28T08:34:36;17.30;99.90
5556;DHT22;2801;50.972;7.856;2022-10-28T08:37:08;17.80;99.90
5556;DHT22;2801;50.972;7.856;2022-10-28T08:39:36;18.60;99.90
5556;DHT22;2801;50.972;7.856;2022-10-28T08:42:29;19.50;99.90
5556;DHT22;2801;50.972;7.856;2022-10-28T08:45:24;20.30;99.90
5556;DHT22;2801;50.972;7.856;2022-10-28T08:48:14;21.00;99.90
5556;DHT22;2801;50.972;7.856;2022-10-28T08:51:00;21.40;99.90
5556;DHT22;2801;50.972;7.856;2022-10-28T08:53:46;21.40;99.90
5556;DHT22;2801;50.972;7.856;2022-10-28T08:56:26;20.90;99.90
5556;DHT22;2801;50.972;7.856;2022-10-28T08:59:00;20.40;99.90
5556;DHT22;2801;50.972;7.856;2022-10-28T09:01:42;20.20;99.90
5556;DHT22;2801;50.972;7.856;2022-10-28T09:04:40;20.00;99.90
5556;DHT22;2801;50.972;7.856;2022-10-28T09:07:15;19.90;99.90
5556;DHT22;2801;50.972;7.856;2022-10-28T09:09:44;19.80;99.90
5556;DHT22;2801;50.972;7.856;2022-10-28T09:20:56;19.50;99.90
5556;DHT22;2801;50.972;7.856;2022-10-28T09:23:33;19.40;99.90
5556;DHT22;2801;50.972;7.856;2022-10-28T09:26:45;19.50;99.90
5556;DHT22;2801;50.972;7.856;2022-10-28T09:35:54;19.60;99.90
5556;DHT22;2801;50.972;7.856;2022-10-28T09:38:32;19.60;99.90
5556;DHT22;2801;50.972;7.856;2022-10-28T09:41:30;19.60;99.90
5556;DHT22;2801;50.972;7.856;2022-10-28T09:44:17;19.50;99.90
5556;DHT22;2801;50.972;7.856;2022-10-28T09:46:54;19.50;99.90
5556;DHT22;2801;50.972;7.856;2022-10-28T09:49:27;19.40;99.90
5556;DHT22;2801;50.972;7.856;2022-10-28T09:52:15;19.40;99.90
5556;DHT22;2801;50.972;7.856;2022-10-28T09:54:49;19.50;99.90
5556;DHT22;2801;50.972;7.856;2022-10-28T09:57:19;19.40;99.90
5556;DHT22;2801;50.972;7.856;2022-10-28T09:59:47;19.50;99.90
5556;DHT22;2801;50.972;7.856;2022-10-28T10:04:56;19.50;99.90
5556;DHT22;2801;50.972;7.856;2022-10-28T10:07:36;19.60;99.90
5556;DHT22;2801;50.972;7.856;2022-10-28T10:10:30;19.60;99.90
5556;DHT22;2801;50.972;7.856;2022-10-28T10:13:03;19.60;99.90
5556;DHT22;2801;50.972;7.856;2022-10-28T10:15:50;19.60;99.90
5556;DHT22;2801;50.972;7.856;2022-10-28T10:18:26;19.70;99.90
5556;DHT22;2801;50.972;7.856;2022-10-28T10:20:56;19.70;99.90
5556;DHT22;2801;50.972;7.856;2022-10-28T10:26:03;19.90;99.90
5556;DHT22;2801;50.972;7.856;2022-10-28T10:28:46;19.90;99.90
5556;DHT22;2801;50.972;7.856;2022-10-28T10:31:24;19.90;99.90
5556;DHT22;2801;50.972;7.856;2022-10-28T10:33:54;20.00;99.90
5556;DHT22;2801;50.972;7.856;2022-10-28T10:36:24;20.00;99.90
5556;DHT22;2801;50.972;7.856;2022-10-28T10:38:58;20.00;99.90
5556;DHT22;2801;50.972;7.856;2022-10-28T10:41:42;20.00;99.90
5556;DHT22;2801;50.972;7.856;2022-10-28T10:44:23;20.10;99.90
5556;DHT22;2801;50.972;7.856;2022-10-28T10:49:35;20.10;99.90
5556;DHT22;2801;50.972;7.856;2022-10-28T10:52:05;20.20;99.90
5556;DHT22;2801;50.972;7.856;2022-10-28T10:54:55;20.30;99.90
5556;DHT22;2801;50.972;7.856;2022-10-28T10:57:25;20.50;99.90
5556;DHT22;2801;50.972;7.856;2022-10-28T10:59:54;20.60;99.90
5556;DHT22;2801;50.972;7.856;2022-10-28T11:02:30;20.70;99.90
5556;DHT22;2801;50.972;7.856;2022-10-28T11:05:05;20.80;99.90
5556;DHT22;2801;50.972;7.856;2022-10-28T11:07:37;20.90;99.90
5556;DHT22;2801;50.972;7.856;2022-10-28T11:10:21;21.00;99.90
5556;DHT22;2801;50.972;7.856;2022-10-28T11:13:04;21.20;99.90
5556;DHT22;2801;50.972;7.856;2022-10-28T11:16:02;21.20;99.90
5556;DHT22;2801;50.972;7.856;2022-10-28T11:18:40;21.30;99.90
5556;DHT22;2801;50.972;7.856;2022-10-28T11:21:36;21.40;99.90
5556;DHT22;2801;50.972;7.856;2022-10-28T11:24:30;21.50;99.90
5556;DHT22;2801;50.972;7.856;2022-10-28T11:30:31;21.70;99.90
5556;DHT22;2801;50.972;7.856;2022-10-28T11:33:16;21.80;99.90
5556;DHT22;2801;50.972;7.856;2022-10-28T11:36:23;21.90;99.90
5556;DHT22;2801;50.972;7.856;2022-10-28T11:45:04;22.20;99.90
5556;DHT22;2801;50.972;7.856;2022-10-28T11:50:44;22.30;99.90
5556;DHT22;2801;50.972;7.856;2022-10-28T11:59:21;22.10;99.90
5556;DHT22;2801;50.972;7.856;2022-10-28T12:16:47;22.50;99.90
5556;DHT22;2801;50.972;7.856;2022-10-28T12:19:26;22.60;99.90
5556;DHT22;2801;50.972;7.856;2022-10-28T12:22:05;22.60;99.90
5556;DHT22;2801;50.972;7.856;2022-10-28T12:24:37;22.70;99.90
5556;DHT22;2801;50.972;7.856;2022-10-28T12:30:06;22.70;99.90
5556;DHT22;2801;50.972;7.856;2022-10-28T12:32:40;22.60;99.90
5556;DHT22;2801;50.972;7.856;2022-10-28T12:35:23;22.60;99.90
5556;DHT22;2801;50.972;7.856;2022-10-28T12:37:57;22.60;99.90
5556;DHT22;2801;50.972;7.856;2022-10-28T12:40:42;22.60;99.90
5556;DHT22;2801;50.972;7.856;2022-10-28T12:43:45;22.60;99.90
5556;DHT22;2801;50.972;7.856;2022-10-28T12:52:13;22.50;99.90
5556;DHT22;2801;50.972;7.856;2022-10-28T12:57:54;22.60;99.90
5556;DHT22;2801;50.972;7.856;2022-10-28T13:00:34;22.70;99.90
5556;DHT22;2801;50.972;7.856;2022-10-28T13:03:10;22.70;99.90
5556;DHT22;2801;50.972;7.856;2022-10-28T13:28:32;22.30;99.90
5556;DHT22;2801;50.972;7.856;2022-10-28T13:31:05;22.30;99.90
5556;DHT22;2801;50.972;7.856;2022-10-28T13:33:35;22.20;99.90
5556;DHT22;2801;50.972;7.856;2022-10-28T13:36:28;22.10;99.90
5556;DHT22;2801;50.972;7.856;2022-10-28T13:39:04;22.10;99.90
5556;DHT22;2801;50.972;7.856;2022-10-28T13:41:38;22.00;99.90
5556;DHT22;2801;50.972;7.856;2022-10-28T13:44:22;22.00;99.90
5556;DHT22;2801;50.972;7.856;2022-10-28T13:49:34;22.10;99.90
5556;DHT22;2801;50.972;7.856;2022-10-28T13:52:21;22.10;99.90
5556;DHT22;2801;50.972;7.856;2022-10-28T13:54:50;22.10;99.90
5556;DHT22;2801;50.972;7.856;2022-10-28T13:57:34;22.00;99.90
5556;DHT22;2801;50.972;7.856;2022-10-28T14:02:40;22.00;99.90
5556;DHT22;2801;50.972;7.856;2022-10-28T14:05:15;21.90;99.90
5556;DHT22;2801;50.972;7.856;2022-10-28T14:07:52;21.90;99.90
5556;DHT22;2801;50.972;7.856;2022-10-28T14:10:25;21.90;99.90
5556;DHT22;2801;50.972;7.856;2022-10-28T14:12:56;21.80;99.90
5556;DHT22;2801;50.972;7.856;2022-10-28T14:15:34;21.80;99.90
5556;DHT22;2801;50.972;7.856;2022-10-28T14:21:04;21.80;99.90
5556;DHT22;2801;50.972;7.856;2022-10-28T14:26:01;21.70;99.90
5556;DHT22;2801;50.972;7.856;2022-10-28T14:41:36;21.60;99.90
5556;DHT22;2801;50.972;7.856;2022-10-28T14:44:38;21.50;99.90
5556;DHT22;2801;50.972;7.856;2022-10-28T14:50:30;21.40;99.90
5556;DHT22;2801;50.972;7.856;2022-10-28T14:53:23;21.30;99.90
5556;DHT22;2801;50.972;7.856;2022-10-28T14:58:57;21.20;99.90
5556;DHT22;2801;50.972;7.856;2022-10-28T15:04:21;21.00;99.90
5556;DHT22;2801;50.972;7.856;2022-10-28T15:06:50;20.90;99.90
5556;DHT22;2801;50.972;7.856;2022-10-28T15:09:30;20.90;99.90
5556;DHT22;2801;50.972;7.856;2022-10-28T15:12:05;20.80;99.90
5556;DHT22;2801;50.972;7.856;2022-10-28T15:14:40;20.60;99.90
5556;DHT22;2801;50.972;7.856;2022-10-28T15:17:20;20.60;99.90
5556;DHT22;2801;50.972;7.856;2022-10-28T15:19:59;20.50;99.90
5556;DHT22;2801;50.972;7.856;2022-10-28T15:22:30;20.40;99.90
5556;DHT22;2801;50.972;7.856;2022-10-28T15:25:00;20.40;99.90
5556;DHT22;2801;50.972;7.856;2022-10-28T15:27:32;20.30;99.90
5556;DHT22;2801;50.972;7.856;2022-10-28T15:30:01;20.30;99.90
5556;DHT22;2801;50.972;7.856;2022-10-28T15:32:31;20.30;99.90
5556;DHT22;2801;50.972;7.856;2022-10-28T15:37:59;20.00;99.90
5556;DHT22;2801;50.972;7.856;2022-10-28T15:40:29;19.90;99.90
5556;DHT22;2801;50.972;7.856;2022-10-28T15:43:05;19.80;99.90
5556;DHT22;2801;50.972;7.856;2022-10-28T15:45:42;19.70;99.90
5556;DHT22;2801;50.972;7.856;2022-10-28T15:48:12;19.60;99.90
5556;DHT22;2801;50.972;7.856;2022-10-28T15:50:44;19.60;99.90
5556;DHT22;2801;50.972;7.856;2022-10-28T15:58:43;19.20;99.90
5556;DHT22;2801;50.972;7.856;2022-10-28T16:04:01;19.00;99.90
5556;DHT22;2801;50.972;7.856;2022-10-28T16:06:30;19.00;99.90
5556;DHT22;2801;50.972;7.856;2022-10-28T16:11:35;18.90;99.90
5556;DHT22;2801;50.972;7.856;2022-10-28T16:17:23;18.70;99.90
5556;DHT22;2801;50.972;7.856;2022-10-28T16:20:13;18.50;99.90
5556;DHT22;2801;50.972;7.856;2022-10-28T16:22:46;18.40;99.90
5556;DHT22;2801;50.972;7.856;2022-10-28T16:25:16;18.30;99.90
5556;DHT22;2801;50.972;7.856;2022-10-28T16:27:47;18.30;99.90
5556;DHT22;2801;50.972;7.856;2022-10-28T16:30:14;18.20;99.90
5556;DHT22;2801;50.972;7.856;2022-10-28T16:32:46;18.10;99.90
5556;DHT22;2801;50.972;7.856;2022-10-28T16:35:20;18.00;99.90
5556;DHT22;2801;50.972;7.856;2022-10-28T16:37:48;17.90;99.90
5556;DHT22;2801;50.972;7.856;2022-10-28T16:40:20;17.90;99.90
5556;DHT22;2801;50.972;7.856;2022-10-28T16:43:13;17.80;99.90
5556;DHT22;2801;50.972;7.856;2022-10-28T16:45:42;17.80;99.90
5556;DHT22;2801;50.972;7.856;2022-10-28T16:48:13;17.60;99.90
5556;DHT22;2801;50.972;7.856;2022-10-28T16:50:57;17.60;99.90
5556;DHT22;2801;50.972;7.856;2022-10-28T16:53:26;17.50;99.90
5556;DHT22;2801;50.972;7.856;2022-10-28T16:55:53;17.40;99.90
5556;DHT22;2801;50.972;7.856;2022-10-28T16:58:29;17.40;99.90
5556;DHT22;2801;50.972;7.856;2022-10-28T17:00:59;17.30;99.90
5556;DHT22;2801;50.972;7.856;2022-10-28T17:03:25;17.20;99.90
5556;DHT22;2801;50.972;7.856;2022-10-28T17:05:52;17.20;99.90
5556;DHT22;2801;50.972;7.856;2022-10-28T17:08:19;17.10;99.90
5556;DHT22;2801;50.972;7.856;2022-10-28T17:11:07;17.00;99.90
5556;DHT22;2801;50.972;7.856;2022-10-28T17:13:39;17.00;99.90
5556;DHT22;2801;50.972;7.856;2022-10-28T17:16:06;16.90;99.90
5556;DHT22;2801;50.972;7.856;2022-10-28T17:18:33;16.90;99.90
5556;DHT22;2801;50.972;7.856;2022-10-28T17:21:00;16.90;99.90
5556;DHT22;2801;50.972;7.856;2022-10-28T17:23:28;16.80;99.90
5556;DHT22;2801;50.972;7.856;2022-10-28T17:26:00;16.90;99.90
5556;DHT22;2801;50.972;7.856;2022-10-28T17:28:28;16.80;99.90
5556;DHT22;2801;50.972;7.856;2022-10-28T17:31:03;16.80;99.90
5556;DHT22;2801;50.972;7.856;2022-10-28T17:33:31;16.80;99.90
5556;DHT22;2801;50.972;7.856;2022-10-28T17:36:04;16.70;99.90
5556;DHT22;2801;50.972;7.856;2022-10-28T17:38:33;16.70;99.90
5556;DHT22;2801;50.972;7.856;2022-10-28T17:41:00;16.70;99.90
5556;DHT22;2801;50.972;7.856;2022-10-28T17:43:27;16.70;99.90
5556;DHT22;2801;50.972;7.856;2022-10-28T17:46:04;16.70;99.90
5556;DHT22;2801;50.972;7.856;2022-10-28T17:48:32;16.60;99.90
5556;DHT22;2801;50.972;7.856;2022-10-28T17:50:59;16.70;99.90
5556;DHT22;2801;50.972;7.856;2022-10-28T17:53:26;16.70;99.90
5556;DHT22;2801;50.972;7.856;2022-10-28T17:56:02;16.60;99.90
5556;DHT22;2801;50.972;7.856;2022-10-28T17:58:31;16.60;99.90
5556;DHT22;2801;50.972;7.856;2022-10-28T18:01:03;16.60;99.90
5556;DHT22;2801;50.972;7.856;2022-10-28T18:03:32;16.60;99.90
5556;DHT22;2801;50.972;7.856;2022-10-28T18:06:07;16.60;99.90
5556;DHT22;2801;50.972;7.856;2022-10-28T18:08:38;16.40;99.90
5556;DHT22;2801;50.972;7.856;2022-10-28T18:11:09;16.50;99.90
5556;DHT22;2801;50.972;7.856;2022-10-28T18:13:40;16.50;99.90
5556;DHT22;2801;50.972;7.856;2022-10-28T18:16:18;16.40;99.90
5556;DHT22;2801;50.972;7.856;2022-10-28T18:18:47;16.40;99.90
5556;DHT22;2801;50.972;7.856;2022-10-28T18:21:14;16.40;99.90
5556;DHT22;2801;50.972;7.856;2022-10-28T18:23:40;16.40;99.90
5556;DHT22;2801;50.972;7.856;2022-10-28T18:26:12;16.30;99.90
5556;DHT22;2801;50.972;7.856;2022-10-28T18:28:44;16.20;99.90
5556;DHT22;2801;50.972;7.856;2022-10-28T18:31:13;16.20;99.90
5556;DHT22;2801;50.972;7.856;2022-10-28T18:33:42;16.10;99.90
5556;DHT22;2801;50.972;7.856;2022-10-28T18:36:12;16.00;99.90
5556;DHT22;2801;50.972;7.856;2022-10-28T18:38:41;16.00;99.90
5556;DHT22;2801;50.972;7.856;2022-10-28T18:41:10;15.90;99.90
5556;DHT22;2801;50.972;7.856;2022-10-28T18:43:37;15.80;99.90
5556;DHT22;2801;50.972;7.856;2022-10-28T18:46:05;15.70;99.90
5556;DHT22;2801;50.972;7.856;2022-10-28T18:48:32;15.60;99.90
5556;DHT22;2801;50.972;7.856;2022-10-28T18:51:01;15.60;99.90
5556;DHT22;2801;50.972;7.856;2022-10-28T18:53:40;15.50;99.90
5556;DHT22;2801;50.972;7.856;2022-10-28T18:56:11;15.40;99.90
5556;DHT22;2801;50.972;7.856;2022-10-28T18:58:41;15.30;99.90
5556;DHT22;2801;50.972;7.856;2022-10-28T19:01:14;15.20;99.90
5556;DHT22;2801;50.972;7.856;2022-10-28T19:03:43;15.20;99.90
5556;DHT22;2801;50.972;7.856;2022-10-28T19:06:14;15.10;99.90
5556;DHT22;2801;50.972;7.856;2022-10-28T19:08:43;15.00;99.90
5556;DHT22;2801;50.972;7.856;2022-10-28T19:11:12;15.00;99.90
5556;DHT22;2801;50.972;7.856;2022-10-28T19:13:40;14.90;99.90
5556;DHT22;2801;50.972;7.856;2022-10-28T19:16:07;14.80;99.90
5556;DHT22;2801;50.972;7.856;2022-10-28T19:18:35;14.70;99.90
5556;DHT22;2801;50.972;7.856;2022-10-28T19:21:05;14.70;99.90
5556;DHT22;2801;50.972;7.856;2022-10-28T19:23:40;14.60;99.90
5556;DHT22;2801;50.972;7.856;2022-10-28T19:26:09;14.50;99.90
5556;DHT22;2801;50.972;7.856;2022-10-28T19:28:39;14.40;99.90
5556;DHT22;2801;50.972;7.856;2022-10-28T19:31:15;14.40;99.90
5556;DHT22;2801;50.972;7.856;2022-10-28T19:33:44;14.30;99.90
5556;DHT22;2801;50.972;7.856;2022-10-28T19:38:47;14.20;99.90